South Boston, VA

10:31 AM EDT on September 20, 2014 (GMT -0400)
Union Community Near South Boston, Va | Change Station
CLOSE
Current Station
Personal Weather Station
Location: South Boston, VA
Elevation: 440 ft
Nearby Weather Stations

Elev 440 ft 36.70 °N, 79.00 °W | Updated 20 seconds ago

Clear
Clear
71.4 °F
Feels Like 72 °F
N
4.0
Wind Variable Wind from NE
Gusts 6.0 mph

Today
High -- | Low -- °F
--% Chance of Precip.
Yesterday
High -- | Low -- °F
Precip. -- in
7:01 AM 7:15 PM
Waning Crescent, 12% visible
Pressure 30.22 in
Visibility 10.0 miles
Clouds Clear
Heat Index 72 °F
Dew Point 64 °F
Humidity 78%
Rainfall 0.01 in
Snow Depth Not available.
UV 3 out of 12
Pollen 5.60 out of 12
Air Quality Not available.
Flu Activity Not available.
METAR KDAN 201353Z AUTO 08004KT 10SM CLR 20/15 A3024 RMK AO2 SLP231 T02000150

More Conditions Fewer Conditions

Pressure 30.22 in
Visibility 10.0 miles
Clouds Clear
Heat Index 72 °F
Dew Point 64 °F
Humidity 78%
Rainfall 0.01 in
Snow Depth Not available.
UV 3 out of 12
Pollen 5.60 out of 12
Air Quality Not available.
Flu Activity Not available.
METAR KDAN 201353Z AUTO 08004KT 10SM CLR 20/15 A3024 RMK AO2 SLP231 T02000150

More Conditions Fewer Conditions

10-Day Weather Forecast

Almanac

Astronomy

Sep. 20, 2014 Rise Set
Actual Time 7:01 AM EDT 7:15 PM EDT
Civil Twilight 6:36 AM EDT 7:41 PM EDT
Nautical Twilight 6:05 AM EDT 8:11 PM EDT
Astronomical Twilight 5:35 AM EDT 8:42 PM EDT
Moon 3:43 AM EDT 5:14 PM EDT
Length of Visible Light 13h 05m
Length of Day
12h 13m
Tomorrow will be 2m 18s shorter.
Waning Crescent, 12% of the Moon is Illuminated
Today
Waning Crescent
Sep 24
New
Oct 1
First Quarter
Oct 8
Full
Oct 15
Last Quarter

Today's Extremes

State Highs State Lows

Community

WunderPhotos

Upload Photos

1,754,872 photos uploaded!

WunderBlogs® & News

Nearby

Snow Depth

Station Depth Elevation
No new snow has been reported.

Earthquake Activity

City Distance Mag. Time & Date
No recent earthquake activity has been reported nearby.
Minimum magnitude displayed is 2.5.

Coastal Water Temperatures

Place Temperature
No Stations Reporting

Nearby Weather Stations